Time;durP1;ratioP1;P1;durP2;ratioP2;P2;SDS_P1;SDS_P2;PMS_P1;PMS_P2;Temp;Humidity;BMP_temperature;BMP_pressure;BME280_temperature;BME280_humidity;BME280_pressure;Samples;Min_cycle;Max_cycle;Signal;HPM_P1;HPM_P2
2021/08/24 00:00:29;;;;;;;3.17;2.83;;;25.50;54.70;;;;;;4181968;28;20042;-57
2021/08/24 00:02:31;;;;;;;4.75;3.13;;;25.50;54.70;;;;;;4181944;28;20106;-57
2021/08/24 00:04:33;;;;;;;4.07;3.08;;;25.50;54.70;;;;;;4182082;28;20049;-57
2021/08/24 00:06:36;;;;;;;3.10;2.80;;;25.50;54.80;;;;;;4182079;28;20048;-58
2021/08/24 00:08:40;;;;;;;4.30;2.92;;;25.50;54.80;;;;;;4181897;28;20045;-58
2021/08/24 00:10:44;;;;;;;;;;;25.50;54.80;;;;;;4182281;28;20073;-57
2021/08/24 00:12:46;;;;;;;4.75;3.17;;;25.50;54.80;;;;;;4181920;28;19921;-58
2021/08/24 00:14:48;;;;;;;5.93;2.92;;;25.50;54.70;;;;;;4181743;28;20050;-58
2021/08/24 00:16:50;;;;;;;4.60;2.97;;;25.50;54.80;;;;;;4181777;28;20081;-58
2021/08/24 00:18:52;;;;;;;3.72;3.17;;;25.50;54.80;;;;;;4181777;28;20140;-57
2021/08/24 00:20:55;;;;;;;4.53;2.95;;;25.50;54.80;;;;;;4180675;28;20053;-57
2021/08/24 00:23:00;;;;;;;5.35;3.40;;;25.50;54.80;;;;;;4181044;28;20052;-57
2021/08/24 00:25:08;;;;;;;5.32;2.97;;;25.50;54.80;;;;;;4181718;28;20049;-57
2021/08/24 00:27:09;;;;;;;2.92;2.45;;;25.40;54.80;;;;;;4181705;28;20045;-57
2021/08/24 00:29:13;;;;;;;5.88;3.03;;;25.50;54.80;;;;;;4181705;28;20049;-57
2021/08/24 00:31:15;;;;;;;3.60;1.92;;;25.50;54.80;;;;;;4181746;28;20108;-58
2021/08/24 00:33:18;;;;;;;4.72;3.60;;;25.40;54.90;;;;;;4181633;28;20114;-58
2021/08/24 00:35:20;;;;;;;4.53;3.10;;;25.50;54.80;;;;;;4181797;28;20045;-57
2021/08/24 00:37:23;;;;;;;10.48;3.40;;;25.40;54.80;;;;;;4181759;28;20045;-58
2021/08/24 00:39:25;;;;;;;4.38;3.00;;;25.40;54.80;;;;;;4181564;28;20053;-58
2021/08/24 00:41:28;;;;;;;3.80;2.72;;;25.40;54.80;;;;;;4181566;28;20053;-57
2021/08/24 00:43:34;;;;;;;3.55;2.97;;;25.40;54.80;;;;;;4181506;28;20049;-58
2021/08/24 00:45:40;;;;;;;4.25;3.10;;;25.40;54.70;;;;;;4181645;28;20079;-57
2021/08/24 00:47:45;;;;;;;3.92;2.80;;;25.40;54.70;;;;;;4181515;28;20046;-57
2021/08/24 00:49:48;;;;;;;4.45;3.15;;;25.40;54.80;;;;;;4181287;28;20045;-58
2021/08/24 00:52:07;;;;;;;4.30;3.13;;;25.40;54.70;;;;;;4181544;28;20041;-58
2021/08/24 00:54:11;;;;;;;4.47;3.15;;;25.40;54.60;;;;;;4181638;28;20055;-57
2021/08/24 00:56:14;;;;;;;;;;;25.40;54.60;;;;;;4181984;28;20049;-57
2021/08/24 00:58:17;;;;;;;5.78;3.33;;;25.40;54.60;;;;;;4181510;28;19928;-57
2021/08/24 01:00:19;;;;;;;5.13;3.22;;;25.40;54.50;;;;;;4181558;28;20116;-58
2021/08/24 01:02:25;;;;;;;5.65;3.60;;;25.50;54.40;;;;;;4184447;28;20053;-56
2021/08/24 01:04:30;;;;;;;4.65;3.53;;;25.50;54.50;;;;;;4184586;28;20057;-55
2021/08/24 01:06:58;;;;;;;3.83;3.30;;;25.50;54.40;;;;;;4184599;28;20041;-56
2021/08/24 01:09:10;;;;;;;4.10;3.53;;;25.40;54.40;;;;;;4184492;28;20046;-55
2021/08/24 01:11:24;;;;;;;4.10;3.17;;;25.40;54.50;;;;;;4184580;28;20050;-53
2021/08/24 01:13:31;;;;;;;3.83;3.30;;;25.40;54.50;;;;;;4184760;28;20049;-55
2021/08/24 01:15:48;;;;;;;7.18;3.42;;;25.40;54.60;;;;;;4184636;28;20049;-56
2021/08/24 01:18:11;;;;;;;8.40;4.03;;;25.40;54.50;;;;;;4184196;28;20084;-54
2021/08/24 01:20:48;;;;;;;4.82;2.88;;;25.40;54.60;;;;;;4184389;28;20049;-56
2021/08/24 01:23:14;;;;;;;11.85;3.58;;;25.40;54.50;;;;;;4184170;28;20059;-56
2021/08/24 01:25:26;;;;;;;4.50;3.25;;;25.40;54.50;;;;;;4184398;28;20049;-55
2021/08/24 01:27:38;;;;;;;4.13;3.60;;;25.40;54.50;;;;;;4184408;28;20041;-57
2021/08/24 01:29:52;;;;;;;7.10;3.25;;;25.40;54.60;;;;;;4184315;28;20059;-56
2021/08/24 01:31:59;;;;;;;3.67;3.30;;;25.40;54.60;;;;;;4184216;28;20046;-54
2021/08/24 01:34:37;;;;;;;3.72;3.33;;;25.40;54.50;;;;;;4184257;28;20087;-54
2021/08/24 01:36:41;;;;;;;4.53;3.50;;;25.30;54.50;;;;;;4184152;28;20050;-56
2021/08/24 01:38:49;;;;;;;5.60;3.70;;;25.30;54.50;;;;;;4184268;28;20046;-53
2021/08/24 01:41:13;;;;;;;3.90;3.38;;;25.30;54.60;;;;;;4184067;28;20057;-55
2021/08/24 01:43:20;;;;;;;8.15;4.18;;;25.30;54.60;;;;;;4184197;28;20050;-56
2021/08/24 01:46:01;;;;;;;6.53;3.50;;;25.30;54.50;;;;;;4184194;28;20050;-57
2021/08/24 01:48:32;;;;;;;3.35;2.80;;;25.30;54.50;;;;;;4173399;28;20045;-56
2021/08/24 01:51:00;;;;;;;3.85;3.25;;;25.30;54.60;;;;;;4184172;28;20049;-57
2021/08/24 01:53:17;;;;;;;4.38;3.03;;;25.30;54.50;;;;;;4183954;28;20046;-57
2021/08/24 01:55:24;;;;;;;3.72;2.88;;;25.30;54.50;;;;;;4183913;28;20041;-57
2021/08/24 01:57:32;;;;;;;6.30;3.60;;;25.30;54.60;;;;;;4183834;28;20052;-57
2021/08/24 01:59:40;;;;;;;5.10;3.35;;;25.30;54.60;;;;;;4183883;28;20124;-57
2021/08/24 02:01:48;;;;;;;5.05;3.50;;;25.30;54.60;;;;;;4183716;28;20045;-57
2021/08/24 02:03:56;;;;;;;5.10;3.78;;;25.30;54.60;;;;;;4183826;28;20046;-57
2021/08/24 02:06:18;;;;;;;3.95;3.30;;;25.20;54.60;;;;;;4183978;28;20049;-57
2021/08/24 02:08:28;;;;;;;4.22;3.53;;;25.20;54.70;;;;;;4183685;28;20050;-57
2021/08/24 02:10:30;;;;;;;5.82;3.55;;;25.20;54.70;;;;;;4183866;28;20045;-57
2021/08/24 02:12:36;;;;;;;5.28;3.83;;;25.20;54.70;;;;;;4183280;28;20051;-57
2021/08/24 02:14:40;;;;;;;5.15;3.80;;;25.20;54.70;;;;;;4183597;28;20058;-58
2021/08/24 02:16:46;;;;;;;7.05;3.53;;;25.20;54.70;;;;;;4183630;28;20049;-57
2021/08/24 02:19:03;;;;;;;6.60;3.72;;;25.20;54.70;;;;;;4183319;28;20075;-58
2021/08/24 02:21:18;;;;;;;5.63;3.72;;;25.20;54.70;;;;;;4183541;28;20064;-57
2021/08/24 02:23:23;;;;;;;;;;;25.20;54.80;;;;;;4183888;28;20052;-58
2021/08/24 02:25:31;;;;;;;5.20;3.97;;;25.20;54.70;;;;;;4183437;28;19921;-58
2021/08/24 02:27:39;;;;;;;5.70;4.03;;;25.20;54.80;;;;;;4183383;28;20041;-58
2021/08/24 02:29:41;;;;;;;6.32;4.25;;;25.20;54.80;;;;;;4183310;28;20109;-58
2021/08/24 02:31:59;;;;;;;6.15;4.07;;;25.20;54.80;;;;;;4183294;28;20075;-57
2021/08/24 02:34:15;;;;;;;12.88;4.85;;;25.20;54.80;;;;;;4183420;28;20139;-57
2021/08/24 02:36:18;;;;;;;6.28;4.10;;;25.10;54.80;;;;;;4183331;28;20046;-55
2021/08/24 02:38:24;;;;;;;5.10;3.85;;;25.20;54.80;;;;;;4183260;28;20054;-57
2021/08/24 02:40:43;;;;;;;7.45;4.65;;;25.20;54.80;;;;;;4183236;28;20072;-57
2021/08/24 02:43:12;;;;;;;5.50;3.97;;;25.20;54.90;;;;;;4183313;28;20053;-57
2021/08/24 02:45:22;;;;;;;6.55;4.32;;;25.10;54.80;;;;;;4183087;28;20105;-57
2021/08/24 02:47:24;;;;;;;5.60;4.20;;;25.10;54.80;;;;;;4183140;28;20105;-56
2021/08/24 02:49:32;;;;;;;6.07;3.80;;;25.10;54.80;;;;;;4183107;28;20041;-57
2021/08/24 02:51:34;;;;;;;6.07;4.60;;;25.10;54.80;;;;;;4183044;28;20072;-55
2021/08/24 02:53:38;;;;;;;6.00;3.75;;;25.10;54.80;;;;;;4183118;28;20049;-57
2021/08/24 02:55:40;;;;;;;5.28;4.20;;;25.10;54.70;;;;;;4183085;28;20049;-57
2021/08/24 02:57:42;;;;;;;5.28;4.43;;;25.10;54.70;;;;;;4182896;28;20068;-58
2021/08/24 02:59:44;;;;;;;6.03;4.15;;;25.10;54.70;;;;;;4182934;28;20049;-57
2021/08/24 03:01:46;;;;;;;5.18;4.25;;;25.10;54.70;;;;;;4182932;28;20109;-57
2021/08/24 03:03:49;;;;;;;5.30;3.97;;;25.10;54.70;;;;;;4182760;28;20050;-57
2021/08/24 03:05:51;;;;;;;6.55;3.60;;;25.10;54.70;;;;;;4182963;28;20041;-57
2021/08/24 03:07:53;;;;;;;4.45;3.70;;;25.10;54.70;;;;;;4182708;28;20042;-57
2021/08/24 03:09:59;;;;;;;5.95;3.70;;;25.10;54.70;;;;;;4182571;28;20068;-58
2021/08/24 03:12:33;;;;;;;4.70;3.97;;;25.10;54.70;;;;;;4182675;28;20178;-57
2021/08/24 03:15:05;;;;;;;5.13;3.47;;;25.10;54.70;;;;;;4181966;28;20053;-57
2021/08/24 03:17:27;;;;;;;4.93;3.08;;;25.10;54.70;;;;;;4181523;28;20068;-55
2021/08/24 03:19:34;;;;;;;5.20;3.33;;;25.10;54.70;;;;;;4182610;28;20053;-59
2021/08/24 03:21:38;;;;;;;4.72;3.40;;;25.10;54.60;;;;;;4182650;28;20112;-58
2021/08/24 03:23:42;;;;;;;6.70;4.30;;;25.10;54.70;;;;;;4181800;28;20045;-57
2021/08/24 03:25:46;;;;;;;6.45;3.80;;;25.00;54.60;;;;;;4182530;28;20482;-58
2021/08/24 03:27:51;;;;;;;;;;;25.10;54.60;;;;;;4182859;28;20069;-58
2021/08/24 03:29:57;;;;;;;8.32;4.60;;;25.10;54.70;;;;;;4182406;28;19927;-58
2021/08/24 03:31:59;;;;;;;;;;;25.10;54.60;;;;;;4182833;28;20046;-58
2021/08/24 03:34:01;;;;;;;7.90;4.05;;;25.10;54.60;;;;;;4182373;28;19921;-48
2021/08/24 03:36:04;;;;;;;8.80;4.43;;;25.00;54.60;;;;;;4182358;28;20050;-53
2021/08/24 03:38:06;;;;;;;13.50;5.05;;;25.10;54.60;;;;;;4182322;28;20122;-58
2021/08/24 03:40:10;;;;;;;11.10;4.22;;;25.00;54.60;;;;;;4182457;28;20049;-58
2021/08/24 03:42:13;;;;;;;5.23;3.80;;;25.00;54.70;;;;;;4182464;28;20049;-58
2021/08/24 03:44:15;;;;;;;9.18;3.75;;;25.00;54.70;;;;;;4182111;28;20076;-58
2021/08/24 03:46:17;;;;;;;7.07;4.10;;;25.00;54.60;;;;;;4182121;28;20045;-58
2021/08/24 03:48:19;;;;;;;6.75;4.00;;;25.00;54.60;;;;;;4182067;28;20076;-58
2021/08/24 03:50:22;;;;;;;7.57;3.70;;;25.00;54.60;;;;;;4182197;28;20060;-58
2021/08/24 03:52:24;;;;;;;7.30;4.03;;;25.00;54.70;;;;;;4182244;28;20521;-58
2021/08/24 03:54:27;;;;;;;8.05;4.13;;;25.00;54.60;;;;;;4181399;28;20053;-56
2021/08/24 03:56:29;;;;;;;8.77;4.15;;;25.00;54.60;;;;;;4182006;28;20052;-57
2021/08/24 03:58:32;;;;;;;8.02;4.05;;;25.00;54.60;;;;;;4182069;28;20075;-57
2021/08/24 04:00:34;;;;;;;6.93;4.03;;;25.00;54.60;;;;;;4181949;28;20049;-58
2021/08/24 04:02:37;;;;;;;5.47;3.70;;;25.00;54.60;;;;;;4181944;28;20057;-58
2021/08/24 04:04:39;;;;;;;7.05;4.60;;;25.00;54.60;;;;;;4182029;28;20045;-58
2021/08/24 04:06:42;;;;;;;8.20;4.28;;;25.00;54.60;;;;;;4182061;28;20103;-58
2021/08/24 04:08:43;;;;;;;7.65;3.80;;;25.00;54.60;;;;;;4181794;28;20049;-58
2021/08/24 04:10:45;;;;;;;6.13;3.20;;;25.00;54.60;;;;;;4180946;28;20051;-58
2021/08/24 04:12:47;;;;;;;6.78;3.92;;;25.00;54.60;;;;;;4181986;28;20052;-58
2021/08/24 04:14:50;;;;;;;5.38;3.40;;;25.00;54.60;;;;;;4181905;28;20053;-57
2021/08/24 04:16:52;;;;;;;9.93;4.60;;;25.00;54.60;;;;;;4181860;28;20051;-57
2021/08/24 04:18:54;;;;;;;5.20;3.72;;;25.00;54.60;;;;;;4181396;28;20063;-57
2021/08/24 04:20:56;;;;;;;7.97;3.50;;;25.00;54.70;;;;;;4181846;28;20077;-58
2021/08/24 04:22:58;;;;;;;6.80;3.65;;;25.00;54.60;;;;;;4181765;28;20051;-57
2021/08/24 04:25:00;;;;;;;4.90;3.45;;;25.00;54.70;;;;;;4181731;28;20079;-57
2021/08/24 04:27:03;;;;;;;7.13;3.85;;;25.00;54.70;;;;;;4181961;28;20104;-57
2021/08/24 04:29:05;;;;;;;9.40;3.80;;;25.00;54.70;;;;;;4181911;28;20049;-58
2021/08/24 04:31:12;;;;;;;7.03;3.83;;;25.00;54.70;;;;;;4181749;28;20045;-57
2021/08/24 04:33:14;;;;;;;5.95;3.40;;;25.10;54.70;;;;;;4181710;28;20045;-58
2021/08/24 04:35:18;;;;;;;6.50;3.67;;;25.00;54.70;;;;;;4183065;28;20064;-57
2021/08/24 04:37:21;;;;;;;6.50;4.10;;;25.00;54.70;;;;;;4185062;28;20109;-55
2021/08/24 04:39:23;;;;;;;6.13;3.38;;;25.00;54.80;;;;;;4184957;28;20050;-53
2021/08/24 04:41:26;;;;;;;5.95;3.72;;;25.00;54.80;;;;;;4185195;28;20052;-54
2021/08/24 04:43:28;;;;;;;4.82;3.10;;;25.00;54.80;;;;;;4185238;28;20049;-54
2021/08/24 04:45:30;;;;;;;5.57;3.55;;;25.00;54.80;;;;;;4184892;28;20049;-54
2021/08/24 04:47:32;;;;;;;12.13;6.43;;;25.00;55.00;;;;;;4185003;28;20105;-50
2021/08/24 04:49:34;;;;;;;12.57;5.90;;;25.00;55.40;;;;;;4184953;28;20046;-54
2021/08/24 04:51:36;;;;;;;12.43;6.25;;;25.00;55.40;;;;;;4185013;28;20049;-53
2021/08/24 04:53:38;;;;;;;8.25;5.65;;;25.00;55.50;;;;;;4184100;28;20076;-53
2021/08/24 04:55:41;;;;;;;7.85;4.55;;;25.00;55.60;;;;;;4184920;28;20045;-54
2021/08/24 04:57:46;;;;;;;9.05;5.40;;;25.00;55.70;;;;;;4184795;28;20060;-54
2021/08/24 04:59:48;;;;;;;16.60;6.05;;;25.00;55.60;;;;;;4184647;28;20055;-55
2021/08/24 05:01:50;;;;;;;12.00;5.70;;;25.00;55.80;;;;;;4183801;28;20053;-51
2021/08/24 05:03:52;;;;;;;24.60;5.03;;;24.90;55.90;;;;;;4184393;28;20084;-53
2021/08/24 05:05:54;;;;;;;15.63;4.88;;;24.90;56.00;;;;;;4184734;28;20049;-52
2021/08/24 05:07:56;;;;;;;20.35;6.43;;;25.00;56.30;;;;;;4184793;28;20049;-54
2021/08/24 05:09:58;;;;;;;24.40;6.07;;;25.00;56.10;;;;;;4184633;28;20045;-50
2021/08/24 05:12:00;;;;;;;19.10;6.78;;;25.00;56.40;;;;;;4184412;28;20045;-54
2021/08/24 05:14:02;;;;;;;18.17;6.90;;;25.00;56.10;;;;;;4184544;28;20065;-54
2021/08/24 05:16:08;;;;;;;14.18;6.50;;;25.00;56.20;;;;;;4184398;28;20045;-51
2021/08/24 05:18:11;;;;;;;28.55;7.13;;;25.00;56.30;;;;;;4184406;28;20113;-51
2021/08/24 05:20:13;;;;;;;23.02;7.10;;;24.90;56.20;;;;;;4184592;28;20079;-48
2021/08/24 05:22:15;;;;;;;21.20;7.45;;;25.00;56.30;;;;;;4184486;28;20173;-50
2021/08/24 05:24:17;;;;;;;16.17;6.18;;;25.00;56.30;;;;;;4184349;28;20076;-50
2021/08/24 05:26:20;;;;;;;22.15;6.45;;;24.90;56.40;;;;;;4183485;28;20072;-52
2021/08/24 05:28:22;;;;;;;19.95;7.25;;;24.90;56.60;;;;;;4184270;28;20073;-51
2021/08/24 05:30:26;;;;;;;12.60;6.40;;;24.90;56.60;;;;;;4184436;28;20052;-52
2021/08/24 05:32:28;;;;;;;20.75;6.40;;;24.90;56.60;;;;;;4184349;28;20104;-54
2021/08/24 05:34:30;;;;;;;14.60;6.70;;;24.90;56.70;;;;;;4184181;28;20057;-54
2021/08/24 05:36:32;;;;;;;16.00;7.30;;;24.90;56.90;;;;;;4183408;28;20060;-50
2021/08/24 05:38:34;;;;;;;19.63;6.78;;;24.90;57.10;;;;;;4184200;28;20074;-52
2021/08/24 05:40:36;;;;;;;14.95;8.77;;;24.90;57.10;;;;;;4184223;28;20111;-54
2021/08/24 05:42:39;;;;;;;15.02;9.27;;;24.80;57.30;;;;;;4183857;28;20050;-48
2021/08/24 05:44:40;;;;;;;20.08;6.57;;;24.90;57.30;;;;;;4183764;28;20041;-52
2021/08/24 05:46:42;;;;;;;16.83;5.80;;;24.80;57.10;;;;;;4182350;28;20048;-54
2021/08/24 05:48:45;;;;;;;20.42;5.30;;;24.90;57.00;;;;;;4182293;28;20053;-55
2021/08/24 05:50:47;;;;;;;12.63;4.07;;;24.90;57.00;;;;;;4182126;28;20049;-54
2021/08/24 05:52:49;;;;;;;9.48;3.72;;;24.90;56.90;;;;;;4183081;28;20052;-52
2021/08/24 05:54:51;;;;;;;13.82;3.17;;;25.00;56.90;;;;;;4183065;28;20053;-53
2021/08/24 05:56:53;;;;;;;9.07;3.05;;;25.00;56.90;;;;;;4183007;28;20103;-53
2021/08/24 05:58:55;;;;;;;5.00;2.58;;;25.00;56.90;;;;;;4182956;28;20056;-54
2021/08/24 06:00:57;;;;;;;13.07;5.25;;;25.00;56.80;;;;;;4182938;28;20116;-45
2021/08/24 06:03:00;;;;;;;21.15;4.55;;;25.00;57.20;;;;;;4182983;28;20054;-46
2021/08/24 06:05:02;;;;;;;14.38;5.93;;;24.90;57.40;;;;;;4182962;28;20101;-47
2021/08/24 06:07:05;;;;;;;11.52;4.28;;;25.00;57.40;;;;;;4182948;28;20072;-47
2021/08/24 06:09:10;;;;;;;12.98;5.55;;;25.00;57.60;;;;;;4182696;28;20055;-48
2021/08/24 06:11:36;;;;;;;16.55;5.70;;;24.90;57.90;;;;;;4182799;28;20049;-48
2021/08/24 06:13:38;;;;;;;9.95;5.13;;;24.90;57.90;;;;;;4180119;28;20611;-48
2021/08/24 06:15:40;;;;;;;8.02;4.40;;;24.90;58.00;;;;;;4182633;28;20073;-47
2021/08/24 06:17:46;;;;;;;13.90;5.15;;;24.90;58.00;;;;;;4182500;28;20049;-48
2021/08/24 06:19:48;;;;;;;13.88;5.90;;;24.90;58.00;;;;;;4182712;28;20057;-51
2021/08/24 06:21:50;;;;;;;9.63;5.63;;;24.90;58.50;;;;;;4182716;28;20053;-46
2021/08/24 06:23:52;;;;;;;17.75;7.00;;;24.90;58.50;;;;;;4182548;28;20105;-48
2021/08/24 06:25:54;;;;;;;7.40;4.57;;;24.90;58.40;;;;;;4182429;28;20045;-50
2021/08/24 06:27:56;;;;;;;12.93;5.15;;;24.90;58.50;;;;;;4182386;28;20046;-51
2021/08/24 06:29:58;;;;;;;7.75;4.63;;;24.90;58.60;;;;;;4182522;28;20050;-60
2021/08/24 06:32:05;;;;;;;12.73;5.47;;;24.90;58.50;;;;;;4182575;28;20049;-60
2021/08/24 06:34:10;;;;;;;8.07;5.72;;;24.90;58.40;;;;;;4182597;28;20061;-60
2021/08/24 06:36:14;;;;;;;8.07;5.15;;;24.90;58.40;;;;;;4182559;28;20041;-57
2021/08/24 06:38:16;;;;;;;;;;;24.90;58.20;;;;;;4183083;28;20105;-58
2021/08/24 06:40:18;;;;;;;15.27;5.40;;;24.90;58.30;;;;;;4182490;28;19931;-60
2021/08/24 06:42:20;;;;;;;10.07;4.65;;;24.90;58.20;;;;;;4182246;28;20084;-58
2021/08/24 06:44:22;;;;;;;31.70;21.30;;;24.90;58.00;;;;;;4182120;28;20105;-58
2021/08/24 06:46:24;;;;;;;51.55;37.13;;;24.90;57.90;;;;;;4183588;28;20105;-58
2021/08/24 06:48:26;;;;;;;39.47;25.77;;;25.00;57.70;;;;;;4198378;28;20060;-61
2021/08/24 06:50:31;;;;;;;31.88;24.00;;;25.00;57.50;;;;;;4198680;28;20060;-59
2021/08/24 06:52:33;;;;;;;29.02;18.75;;;24.90;57.30;;;;;;4198462;28;20070;-58
2021/08/24 06:54:35;;;;;;;21.05;13.95;;;25.00;57.20;;;;;;4198531;28;20045;-59
2021/08/24 06:56:37;;;;;;;19.27;12.35;;;25.00;56.80;;;;;;4198429;28;20041;-58
2021/08/24 06:58:44;;;;;;;22.48;10.82;;;25.00;56.00;;;;;;4197144;28;20083;-58
2021/08/24 07:00:47;;;;;;;15.60;10.15;;;24.90;56.00;;;;;;4198292;28;20108;-59
2021/08/24 07:02:51;;;;;;;13.57;9.57;;;25.00;56.20;;;;;;4198399;28;20080;-61
2021/08/24 07:04:53;;;;;;;13.45;8.38;;;25.00;56.00;;;;;;4198129;28;20112;-59
2021/08/24 07:06:55;;;;;;;10.88;7.25;;;25.00;55.80;;;;;;4198289;28;20110;-57
2021/08/24 07:08:57;;;;;;;11.30;8.23;;;25.00;55.80;;;;;;4197319;28;20055;-59
2021/08/24 07:10:59;;;;;;;15.57;7.82;;;25.00;55.70;;;;;;4198269;28;20092;-58
2021/08/24 07:13:01;;;;;;;10.77;6.85;;;25.10;55.60;;;;;;4198057;28;20051;-58
2021/08/24 07:15:05;;;;;;;9.05;6.50;;;25.10;55.60;;;;;;4198411;28;20396;-60
2021/08/24 07:17:07;;;;;;;9.13;6.63;;;25.10;55.50;;;;;;4197479;28;20053;-58
2021/08/24 07:19:09;;;;;;;12.27;6.18;;;25.10;55.30;;;;;;4197952;28;20301;-60
2021/08/24 07:21:15;;;;;;;7.85;5.10;;;25.10;55.10;;;;;;4198037;28;20049;-59
2021/08/24 07:23:17;;;;;;;9.15;5.90;;;25.10;54.90;;;;;;4198387;28;20080;-53
2021/08/24 07:25:23;;;;;;;10.05;4.95;;;25.10;55.00;;;;;;4198247;28;20052;-51
2021/08/24 07:27:25;;;;;;;7.75;4.70;;;25.10;54.70;;;;;;4198268;28;20112;-52
2021/08/24 07:29:31;;;;;;;7.47;5.35;;;25.10;54.70;;;;;;4198201;28;20064;-56
2021/08/24 07:31:37;;;;;;;7.18;5.05;;;25.10;54.60;;;;;;4197631;28;20045;-56
2021/08/24 07:33:40;;;;;;;11.90;5.50;;;25.10;54.80;;;;;;4197886;28;20080;-54
2021/08/24 07:35:42;;;;;;;6.90;4.72;;;25.10;54.90;;;;;;4197988;28;20068;-50
2021/08/24 07:37:45;;;;;;;11.77;5.25;;;25.20;54.70;;;;;;4198088;28;20155;-50
2021/08/24 07:39:46;;;;;;;8.23;4.93;;;25.10;55.10;;;;;;4197834;28;20056;-49
2021/08/24 07:41:49;;;;;;;9.85;5.70;;;25.20;55.20;;;;;;4197743;28;20053;-49
2021/08/24 07:43:51;;;;;;;9.80;4.40;;;25.10;55.30;;;;;;4197703;28;20053;-52
2021/08/24 07:45:53;;;;;;;8.25;4.85;;;25.10;54.80;;;;;;4197844;28;20045;-54
2021/08/24 07:47:55;;;;;;;8.75;4.80;;;25.10;54.30;;;;;;4198054;28;20557;-49
2021/08/24 07:49:57;;;;;;;9.68;4.93;;;25.10;54.80;;;;;;4197726;28;20072;-49
2021/08/24 07:51:59;;;;;;;9.35;4.78;;;25.20;54.40;;;;;;4197677;28;20052;-49
2021/08/24 07:54:01;;;;;;;9.70;4.57;;;25.20;54.80;;;;;;4197675;28;20045;-51
2021/08/24 07:56:06;;;;;;;6.85;4.50;;;25.20;54.90;;;;;;4197732;28;20061;-49
2021/08/24 07:58:08;;;;;;;6.22;4.53;;;25.20;55.00;;;;;;4197522;28;20120;-52
2021/08/24 08:00:10;;;;;;;11.60;4.65;;;25.20;54.60;;;;;;4197822;28;20051;-52
2021/08/24 08:02:15;;;;;;;7.18;3.83;;;25.20;54.70;;;;;;4197577;28;20075;-53
2021/08/24 08:04:19;;;;;;;7.43;4.00;;;25.20;53.40;;;;;;4197527;28;20044;-51
2021/08/24 08:06:21;;;;;;;6.05;4.53;;;25.20;53.70;;;;;;4197398;28;20052;-51
2021/08/24 08:08:23;;;;;;;6.07;4.35;;;25.20;54.10;;;;;;4197579;28;20076;-50
2021/08/24 08:10:25;;;;;;;4.63;3.80;;;25.20;54.10;;;;;;4197211;28;20040;-56
2021/08/24 08:12:28;;;;;;;5.78;3.90;;;25.20;54.10;;;;;;4197601;28;20070;-54
2021/08/24 08:14:30;;;;;;;7.30;4.18;;;25.20;54.10;;;;;;4197611;28;20045;-55
2021/08/24 08:16:32;;;;;;;6.65;4.50;;;25.30;54.10;;;;;;4197404;28;20045;-62
2021/08/24 08:18:34;;;;;;;8.20;5.28;;;25.30;53.80;;;;;;4197031;28;20087;-60
2021/08/24 08:20:38;;;;;;;7.65;5.80;;;25.30;53.90;;;;;;4197387;28;20045;-59
2021/08/24 08:22:42;;;;;;;10.60;5.97;;;25.30;53.90;;;;;;4197139;28;20079;-52
2021/08/24 08:24:44;;;;;;;7.30;5.90;;;25.30;53.80;;;;;;4197165;28;20159;-51
2021/08/24 08:26:46;;;;;;;7.60;6.05;;;25.30;53.60;;;;;;4197423;28;20109;-54
2021/08/24 08:28:50;;;;;;;9.15;6.57;;;25.30;53.50;;;;;;4197312;28;20053;-62
2021/08/24 08:30:52;;;;;;;7.80;6.32;;;25.30;53.40;;;;;;4197276;28;20053;-60
2021/08/24 08:32:55;;;;;;;10.65;7.10;;;25.30;52.80;;;;;;4197151;28;20053;-59
2021/08/24 08:34:57;;;;;;;7.88;6.65;;;25.30;52.90;;;;;;4197090;28;20041;-59
2021/08/24 08:36:59;;;;;;;8.35;6.38;;;25.30;52.90;;;;;;4197249;28;20108;-60
2021/08/24 08:39:02;;;;;;;9.07;6.82;;;25.30;53.10;;;;;;4197376;28;20071;-60
2021/08/24 08:41:07;;;;;;;12.77;7.90;;;25.40;53.50;;;;;;4197387;28;20070;-61
2021/08/24 08:43:15;;;;;;;8.55;6.47;;;25.40;53.50;;;;;;4197418;28;20148;-62
2021/08/24 08:45:25;;;;;;;7.95;6.30;;;25.40;53.30;;;;;;4197574;28;20045;-62
2021/08/24 08:47:52;;;;;;;10.48;6.85;;;25.40;53.20;;;;;;4197340;28;20075;-60
2021/08/24 08:50:04;;;;;;;10.13;7.13;;;25.40;53.20;;;;;;4196480;28;20048;-60
2021/08/24 08:52:21;;;;;;;9.00;5.72;;;25.40;52.40;;;;;;4196397;28;20081;-59
2021/08/24 08:54:54;;;;;;;10.30;8.32;;;25.40;53.00;;;;;;4197072;28;20071;-60
2021/08/24 08:57:09;;;;;;;21.17;18.15;;;25.40;51.80;;;;;;4188785;28;20128;-60
2021/08/24 08:59:16;;;;;;;15.95;10.65;;;25.40;52.10;;;;;;4196110;28;20101;-61
2021/08/24 09:01:37;;;;;;;21.48;15.45;;;25.40;52.70;;;;;;4196941;28;20049;-61
2021/08/24 09:03:54;;;;;;;23.90;15.82;;;25.40;52.70;;;;;;4197033;28;20049;-62
2021/08/24 09:05:57;;;;;;;19.52;15.52;;;25.40;52.40;;;;;;4197102;28;20048;-61
2021/08/24 09:08:01;;;;;;;21.98;16.02;;;25.40;52.50;;;;;;4196968;28;20048;-60
2021/08/24 09:10:13;;;;;;;21.63;14.82;;;25.40;52.80;;;;;;4197083;28;20041;-60
2021/08/24 09:12:19;;;;;;;17.35;15.10;;;25.40;51.30;;;;;;4197130;28;20041;-60
2021/08/24 09:14:47;;;;;;;18.83;14.15;;;25.40;52.60;;;;;;4196072;28;20045;-60
2021/08/24 09:17:11;;;;;;;18.25;13.50;;;25.40;52.80;;;;;;4197032;28;20087;-59
2021/08/24 09:19:18;;;;;;;16.50;11.63;;;25.40;53.00;;;;;;4197442;28;20057;-62
2021/08/24 09:21:31;;;;;;;14.63;11.65;;;25.40;52.70;;;;;;4197061;28;20049;-58
2021/08/24 09:23:33;;;;;;;15.80;9.50;;;25.40;51.70;;;;;;4199898;28;20051;-58
2021/08/24 09:26:03;;;;;;;11.35;9.88;;;25.40;51.60;;;;;;4200019;28;20045;-59
2021/08/24 09:28:20;;;;;;;16.20;10.50;;;25.40;51.80;;;;;;4200060;28;20703;-59
2021/08/24 09:30:22;;;;;;;11.40;9.85;;;25.40;52.10;;;;;;4199795;28;20045;-59
2021/08/24 09:32:27;;;;;;;13.85;9.20;;;25.40;52.00;;;;;;4199709;28;20045;-59
2021/08/24 09:34:33;;;;;;;12.00;10.15;;;25.40;52.00;;;;;;4199894;28;20053;-59
2021/08/24 09:36:35;;;;;;;18.30;10.00;;;25.40;52.20;;;;;;4199828;28;20078;-59
2021/08/24 09:38:52;;;;;;;10.43;9.35;;;25.40;52.30;;;;;;4199726;28;20053;-61
2021/08/24 09:40:58;;;;;;;13.00;9.30;;;25.40;52.00;;;;;;4199726;28;20578;-60
2021/08/24 09:43:31;;;;;;;13.13;8.10;;;25.50;52.10;;;;;;4199433;28;20052;-61
2021/08/24 09:45:34;;;;;;;9.95;7.93;;;25.40;51.70;;;;;;4199676;28;20049;-58
2021/08/24 09:47:36;;;;;;;10.32;7.35;;;25.50;51.70;;;;;;4199848;28;20466;-59
2021/08/24 09:49:41;;;;;;;8.85;7.53;;;25.50;51.10;;;;;;4199487;28;20055;-61
2021/08/24 09:51:59;;;;;;;9.60;6.97;;;25.40;51.30;;;;;;4199519;28;20080;-53
2021/08/24 09:54:04;;;;;;;7.90;6.78;;;25.40;51.80;;;;;;4199381;28;20124;-52
2021/08/24 09:56:07;;;;;;;23.33;6.57;;;25.40;51.20;;;;;;4199246;28;20053;-47
2021/08/24 09:58:46;;;;;;;9.48;6.47;;;25.50;51.40;;;;;;4199482;28;20079;-51
2021/08/24 10:00:59;;;;;;;8.00;5.80;;;25.40;51.50;;;;;;4197423;28;20053;-52
2021/08/24 10:03:02;;;;;;;11.40;6.55;;;25.40;51.00;;;;;;4199597;28;20091;-52
2021/08/24 10:05:33;;;;;;;7.85;6.38;;;25.40;50.70;;;;;;4199361;28;20053;-52
2021/08/24 10:07:38;;;;;;;9.85;5.65;;;25.40;51.20;;;;;;4197523;28;20075;-53
2021/08/24 10:09:42;;;;;;;11.20;5.72;;;25.40;50.10;;;;;;4199264;28;20108;-53
2021/08/24 10:11:44;;;;;;;10.05;5.00;;;25.40;51.10;;;;;;4199300;28;20124;-54
2021/08/24 10:13:46;;;;;;;8.40;5.75;;;25.40;51.10;;;;;;4199074;28;20075;-54
2021/08/24 10:15:49;;;;;;;11.23;5.60;;;25.40;50.70;;;;;;4198916;28;20056;-54
2021/08/24 10:18:12;;;;;;;9.70;5.10;;;25.40;51.00;;;;;;4198738;28;20045;-53
2021/08/24 10:20:29;;;;;;;6.05;4.97;;;25.40;51.00;;;;;;4199223;28;20072;-53
2021/08/24 10:22:36;;;;;;;9.27;5.38;;;25.40;50.50;;;;;;4198952;28;20037;-54
2021/08/24 10:24:55;;;;;;;10.13;5.40;;;25.40;51.20;;;;;;4198732;28;20108;-52
2021/08/24 10:27:00;;;;;;;7.13;5.35;;;25.40;50.60;;;;;;4198881;28;20052;-54
2021/08/24 10:29:09;;;;;;;6.75;5.30;;;25.40;50.60;;;;;;4198954;28;20124;-55
2021/08/24 10:31:34;;;;;;;5.50;4.35;;;25.40;50.50;;;;;;4198879;28;20106;-48
2021/08/24 10:33:50;;;;;;;5.03;4.50;;;25.40;51.20;;;;;;4198691;28;20053;-49
2021/08/24 10:35:58;;;;;;;7.43;4.70;;;25.40;51.00;;;;;;4198904;28;20048;-50
2021/08/24 10:38:00;;;;;;;7.70;5.30;;;25.40;50.80;;;;;;4199075;28;20083;-48
2021/08/24 10:40:08;;;;;;;7.30;4.88;;;25.40;50.90;;;;;;4198679;28;20063;-50
2021/08/24 10:42:16;;;;;;;10.05;4.88;;;25.40;51.40;;;;;;4198693;28;20053;-48
2021/08/24 10:44:24;;;;;;;9.18;3.95;;;25.40;51.30;;;;;;4198808;28;20490;-49
2021/08/24 10:46:28;;;;;;;7.10;4.28;;;25.40;51.10;;;;;;4198706;28;20045;-52
2021/08/24 10:48:34;;;;;;;6.65;4.45;;;25.40;50.90;;;;;;4198754;28;20108;-54
2021/08/24 10:50:55;;;;;;;10.32;4.65;;;25.40;51.00;;;;;;4198732;28;20044;-49
2021/08/24 10:53:10;;;;;;;6.20;4.15;;;25.40;50.60;;;;;;4198562;28;20091;-48
2021/08/24 10:55:20;;;;;;;7.95;5.18;;;25.40;51.60;;;;;;4198773;28;20059;-51